Time;durP1;ratioP1;P1;durP2;ratioP2;P2;SDS_P1;SDS_P2;PMS_P1;PMS_P2;Temp;Humidity;BMP_temperature;BMP_pressure;BME280_temperature;BME280_humidity;BME280_pressure;Samples;Min_cycle;Max_cycle;Signal;HPM_P1;HPM_P2
2023/06/05 00:01:46;;;;;;;3.83;1.58;;;;;;;21.17;46.96;99873.69;4478447;31;33465;-68
2023/06/05 00:04:14;;;;;;;3.17;1.58;;;;;;;21.20;47.10;99872.50;4481974;31;35003;-68
2023/06/05 00:06:42;;;;;;;3.33;1.65;;;;;;;21.23;47.04;99876.72;4481210;31;33729;-69
2023/06/05 00:09:10;;;;;;;5.18;2.42;;;;;;;21.30;46.77;99872.25;4479823;31;32902;-69
2023/06/05 00:11:37;;;;;;;4.53;1.80;;;;;;;21.23;47.43;99874.00;4481601;31;33927;-69
2023/06/05 00:14:05;;;;;;;11.10;2.10;;;;;;;21.32;47.10;99876.50;4482105;31;33843;-67
2023/06/05 00:16:32;;;;;;;3.75;1.80;;;;;;;21.39;46.86;99880.22;4478373;31;34417;-67
2023/06/05 00:19:01;;;;;;;5.45;2.30;;;;;;;21.27;47.18;99876.19;4473204;32;33484;-67
2023/06/05 00:21:29;;;;;;;6.07;1.80;;;;;;;21.37;46.79;99873.25;4480158;31;33952;-67
2023/06/05 00:23:56;;;;;;;5.15;2.20;;;;;;;21.42;46.77;99880.88;4481871;31;33776;-68
2023/06/05 00:26:24;;;;;;;5.25;1.95;;;;;;;21.41;47.17;99871.84;4483839;31;33912;-70
2023/06/05 00:28:53;;;;;;;5.03;1.87;;;;;;;21.42;47.20;99876.28;4479468;31;34217;-67
2023/06/05 00:31:21;;;;;;;3.65;2.08;;;;;;;21.42;47.16;99872.72;4482280;31;33513;-67
2023/06/05 00:33:51;;;;;;;3.92;1.62;;;;;;;21.41;47.02;99877.28;4475552;31;33072;-67
2023/06/05 00:36:22;;;;;;;5.57;2.33;;;;;;;21.43;47.11;99877.13;4475325;31;33698;-67
2023/06/05 00:38:50;;;;;;;2.47;1.40;;;;;;;21.37;46.91;99871.37;4480578;31;32991;-67
2023/06/05 00:41:18;;;;;;;2.12;1.48;;;;;;;21.39;46.92;99873.91;4481408;31;34584;-68
2023/06/05 00:43:45;;;;;;;6.10;1.60;;;;;;;21.41;46.79;99866.41;4479780;31;33912;-67
2023/06/05 00:46:14;;;;;;;7.43;2.55;;;;;;;21.34;46.96;99870.84;4479246;31;33226;-67
2023/06/05 00:48:43;;;;;;;3.17;1.83;;;;;;;21.39;47.08;99879.37;4481167;32;34296;-68
2023/06/05 00:51:14;;;;;;;2.78;1.37;;;;;;;21.45;47.02;99870.47;4480512;31;33891;-68
2023/06/05 00:53:44;;;;;;;2.20;1.35;;;;;;;21.39;47.35;99863.03;4478898;32;34055;-67
2023/06/05 00:56:12;;;;;;;2.45;1.37;;;;;;;21.37;47.19;99873.25;4479936;31;33403;-67
2023/06/05 00:58:40;;;;;;;2.95;1.58;;;;;;;21.52;46.37;99873.31;4479930;31;32966;-69
2023/06/05 01:01:10;;;;;;;4.47;1.98;;;;;;;21.64;45.99;99880.03;4480069;31;32841;-68
2023/06/05 01:03:39;;;;;;;5.28;2.25;;;;;;;21.61;46.44;99872.22;4478032;31;33910;-67
2023/06/05 01:06:07;;;;;;;3.47;1.55;;;;;;;21.58;46.36;99867.97;4477648;31;32211;-69
2023/06/05 01:08:39;;;;;;;3.40;1.55;;;;;;;21.67;46.15;99866.03;4479777;31;33283;-68
2023/06/05 01:11:13;;;;;;;2.17;1.55;;;;;;;21.63;46.74;99868.25;4473182;31;34434;-67
2023/06/05 01:13:50;;;;;;;4.03;1.67;;;;;;;21.67;46.58;99871.50;4467892;31;34369;-67
2023/06/05 01:16:18;;;;;;;4.12;1.80;;;;;;;21.65;46.95;99872.69;4478410;31;33554;-68
2023/06/05 01:18:46;;;;;;;2.95;1.95;;;;;;;21.60;47.24;99865.06;4478142;31;32929;-67
2023/06/05 01:21:14;;;;;;;4.57;1.83;;;;;;;21.65;47.60;99859.09;4478526;31;33794;-67
2023/06/05 01:23:44;;;;;;;4.68;2.25;;;;;;;21.65;47.61;99862.66;4474378;31;33390;-66
2023/06/05 01:26:18;;;;;;;3.08;1.62;;;;;;;21.58;47.67;99859.81;4480102;31;33574;-70
2023/06/05 01:28:47;;;;;;;4.57;1.62;;;;;;;21.58;47.67;99861.69;4479153;31;34777;-69
2023/06/05 01:31:19;;;;;;;4.78;1.65;;;;;;;21.57;47.59;99863.56;4462272;31;34813;-67
2023/06/05 01:33:52;;;;;;;3.10;1.30;;;;;;;21.49;47.58;99862.78;4480795;31;32694;-67
2023/06/05 01:36:21;;;;;;;2.60;1.70;;;;;;;21.45;47.80;99867.75;4478394;31;33891;-67
2023/06/05 01:38:49;;;;;;;3.37;1.62;;;;;;;21.43;47.92;99861.63;4475801;31;33107;-69
2023/06/05 01:41:17;;;;;;;2.65;1.48;;;;;;;21.42;48.02;99857.22;4470672;31;33464;-68
2023/06/05 01:43:47;;;;;;;7.22;2.10;;;;;;;21.40;47.82;99864.72;4477528;32;33828;-68
2023/06/05 01:46:17;;;;;;;4.12;2.05;;;;;;;21.29;47.99;99863.25;4474622;31;33573;-68
2023/06/05 01:48:46;;;;;;;12.27;1.92;;;;;;;21.29;48.03;99867.84;4476728;31;33266;-67
2023/06/05 01:51:14;;;;;;;6.90;1.85;;;;;;;21.29;47.73;99867.84;4467356;31;33510;-67
2023/06/05 01:53:43;;;;;;;5.47;2.17;;;;;;;21.27;47.62;99864.44;4478030;32;33909;-69
2023/06/05 01:56:11;;;;;;;4.70;2.10;;;;;;;21.18;47.18;99867.22;4480279;31;33920;-67
2023/06/05 01:58:38;;;;;;;8.30;2.12;;;;;;;21.27;46.87;99864.44;4471908;31;33957;-69
2023/06/05 02:01:07;;;;;;;4.57;1.92;;;;;;;21.36;46.88;99866.13;4478930;31;33679;-67
2023/06/05 02:03:36;;;;;;;3.70;2.05;;;;;;;21.37;46.30;99865.91;4478865;31;32350;-70
2023/06/05 02:06:04;;;;;;;3.83;1.85;;;;;;;21.26;45.95;99857.31;4478340;31;33489;-70
2023/06/05 02:08:31;;;;;;;2.45;1.40;;;;;;;21.41;45.71;99863.69;4477899;31;34206;-70
2023/06/05 02:11:01;;;;;;;3.67;2.17;;;;;;;21.49;44.70;99863.63;4478074;31;36580;-67
2023/06/05 02:13:29;;;;;;;2.53;1.45;;;;;;;21.51;44.86;99863.44;4479444;31;34624;-68
2023/06/05 02:15:57;;;;;;;4.10;2.58;;;;;;;21.50;44.55;99870.75;4478938;31;35082;-68
2023/06/05 02:18:27;;;;;;;3.62;1.67;;;;;;;21.69;44.34;99868.56;4476386;31;33400;-68
2023/06/05 02:20:57;;;;;;;7.05;1.40;;;;;;;21.67;44.39;99860.59;4476423;31;32845;-69
2023/06/05 02:23:25;;;;;;;1.87;1.10;;;;;;;21.76;44.13;99864.06;4480520;31;34810;-68
2023/06/05 02:25:53;;;;;;;3.53;1.83;;;;;;;21.59;44.53;99871.53;4473583;31;33466;-69
2023/06/05 02:28:21;;;;;;;4.22;1.30;;;;;;;21.68;44.42;99864.16;4479891;31;34424;-68
2023/06/05 02:30:49;;;;;;;5.25;1.75;;;;;;;21.85;43.87;99868.41;4475025;31;34227;-68
2023/06/05 02:33:17;;;;;;;4.15;1.70;;;;;;;21.89;43.46;99864.28;4480504;31;35145;-69
2023/06/05 02:35:44;;;;;;;3.08;1.70;;;;;;;21.96;43.23;99862.53;4479092;31;34681;-69
2023/06/05 02:38:12;;;;;;;2.83;1.48;;;;;;;21.95;43.75;99858.09;4480596;31;33447;-68
2023/06/05 02:40:40;;;;;;;3.03;1.73;;;;;;;22.06;43.69;99865.00;4471734;31;32541;-67
2023/06/05 02:43:08;;;;;;;3.12;1.40;;;;;;;22.11;43.65;99857.09;4479881;31;33851;-68
2023/06/05 02:45:36;;;;;;;5.78;2.03;;;;;;;22.14;44.55;99854.00;4478727;31;33848;-69
2023/06/05 02:48:04;;;;;;;4.30;2.33;;;;;;;22.18;45.53;99863.50;4478405;31;32283;-68
2023/06/05 02:50:32;;;;;;;4.50;2.10;;;;;;;22.22;45.96;99869.47;4477909;31;33877;-68
2023/06/05 02:53:01;;;;;;;4.37;1.85;;;;;;;22.16;46.56;99870.22;4475965;31;33920;-69
2023/06/05 02:55:32;;;;;;;10.40;2.47;;;;;;;21.99;47.50;99864.91;4477667;31;32761;-68
2023/06/05 02:58:00;;;;;;;6.90;2.75;;;;;;;21.92;47.86;99860.34;4477652;31;34037;-68
2023/06/05 03:00:29;;;;;;;3.92;2.40;;;;;;;22.12;47.40;99849.75;4477056;31;33840;-68
2023/06/05 03:02:57;;;;;;;6.10;2.65;;;;;;;22.01;47.83;99851.06;4474458;31;34060;-69
2023/06/05 03:05:27;;;;;;;6.40;2.00;;;;;;;22.08;47.64;99850.13;4480236;31;34215;-68
2023/06/05 03:07:56;;;;;;;4.30;2.25;;;;;;;22.19;47.56;99850.75;4477757;31;34734;-68
2023/06/05 03:10:23;;;;;;;3.20;1.55;;;;;;;22.23;47.47;99849.34;4479654;31;33520;-69
2023/06/05 03:12:51;;;;;;;4.45;1.77;;;;;;;22.21;47.42;99851.38;4476982;32;33809;-70
2023/06/05 03:15:19;;;;;;;6.90;2.20;;;;;;;22.13;47.33;99846.00;4476831;31;34585;-69
2023/06/05 03:17:47;;;;;;;6.60;2.65;;;;;;;22.15;47.15;99852.09;4478499;32;34384;-70
2023/06/05 03:20:19;;;;;;;2.28;1.50;;;;;;;22.10;47.09;99844.50;4477724;31;32422;-71
2023/06/05 03:22:46;;;;;;;3.17;1.60;;;;;;;22.07;47.26;99848.44;4478172;31;33935;-70
2023/06/05 03:25:14;;;;;;;2.80;1.48;;;;;;;22.08;47.53;99852.00;4479178;31;33498;-70
2023/06/05 03:27:43;;;;;;;3.35;1.55;;;;;;;22.09;47.86;99849.09;4475967;31;32781;-72
2023/06/05 03:30:16;;;;;;;4.12;2.05;;;;;;;22.10;47.98;99850.78;4477787;31;34952;-73
2023/06/05 03:32:45;;;;;;;6.65;2.25;;;;;;;22.06;48.57;99848.66;4479154;31;34001;-70
2023/06/05 03:35:12;;;;;;;3.67;1.92;;;;;;;22.09;48.45;99843.66;4478372;31;34674;-70
2023/06/05 03:37:40;;;;;;;4.47;2.37;;;;;;;22.09;48.19;99851.84;4478731;31;34329;-70
2023/06/05 03:40:08;;;;;;;3.90;1.83;;;;;;;22.04;48.24;99858.88;4479953;32;33793;-69
2023/06/05 03:42:36;;;;;;;4.82;1.73;;;;;;;21.99;48.81;99853.12;4477550;31;33348;-70
2023/06/05 03:45:05;;;;;;;3.55;2.05;;;;;;;21.96;49.11;99865.25;4474004;31;34709;-72
2023/06/05 03:47:34;;;;;;;3.05;1.73;;;;;;;21.85;48.89;99868.41;4477533;31;34238;-71
2023/06/05 03:50:03;;;;;;;3.55;2.00;;;;;;;21.91;48.62;99864.13;4477038;31;33792;-68
2023/06/05 03:52:31;;;;;;;9.90;2.33;;;;;;;21.91;48.46;99862.22;4479077;31;34615;-69
2023/06/05 03:55:04;;;;;;;8.68;1.85;;;;;;;21.84;48.32;99866.75;4477786;31;34178;-70
2023/06/05 03:57:32;;;;;;;4.40;2.15;;;;;;;21.80;48.67;99868.16;4478016;31;33502;-71
2023/06/05 04:00:00;;;;;;;5.57;2.47;;;;;;;21.90;48.11;99862.44;4473325;31;32614;-72
2023/06/05 04:02:28;;;;;;;5.70;1.85;;;;;;;21.96;47.44;99873.44;4476824;31;33880;-72
2023/06/05 04:04:56;;;;;;;5.25;1.80;;;;;;;21.95;47.19;99868.16;4478580;31;34649;-70
2023/06/05 04:07:23;;;;;;;3.72;2.25;;;;;;;21.96;47.18;99868.00;4475066;31;33086;-70
2023/06/05 04:09:51;;;;;;;3.22;1.87;;;;;;;22.04;47.38;99873.34;4476610;31;33850;-69
2023/06/05 04:12:20;;;;;;;4.85;1.87;;;;;;;22.13;47.90;99870.53;4476103;31;34460;-70
2023/06/05 04:14:48;;;;;;;2.92;1.60;;;;;;;22.09;47.71;99870.06;4477094;31;35140;-69
2023/06/05 04:17:16;;;;;;;2.90;1.50;;;;;;;21.98;48.43;99868.62;4478406;31;34514;-70
2023/06/05 04:19:44;;;;;;;3.10;1.87;;;;;;;22.13;48.19;99870.53;4478573;31;34411;-71
2023/06/05 04:22:11;;;;;;;3.65;1.85;;;;;;;22.13;48.49;99870.53;4477690;31;33306;-70
2023/06/05 04:24:40;;;;;;;4.53;1.87;;;;;;;22.16;48.61;99867.47;4476679;31;33694;-70
2023/06/05 04:27:08;;;;;;;4.15;2.08;;;;;;;22.21;48.45;99874.03;4477813;31;33137;-70
2023/06/05 04:29:36;;;;;;;4.37;2.00;;;;;;;22.28;48.18;99872.28;4477336;32;35696;-75
2023/06/05 04:32:04;;;;;;;4.35;1.83;;;;;;;22.29;48.19;99867.66;4476947;31;33071;-74
2023/06/05 04:34:32;;;;;;;5.35;2.00;;;;;;;22.32;48.16;99870.87;4479211;31;33650;-73
2023/06/05 04:37:01;;;;;;;5.32;2.25;;;;;;;22.33;48.05;99869.81;4481568;31;34131;-73
2023/06/05 04:39:29;;;;;;;3.30;1.87;;;;;;;22.33;47.94;99871.72;4482096;31;33783;-75
2023/06/05 04:41:56;;;;;;;6.65;2.37;;;;;;;22.32;48.19;99873.59;4481071;31;34809;-73
2023/06/05 04:44:30;;;;;;;4.82;2.55;;;;;;;22.32;48.71;99870.03;4474321;31;33904;-74
2023/06/05 04:46:58;;;;;;;3.62;1.98;;;;;;;22.36;48.98;99876.78;4480619;31;33639;-74
2023/06/05 04:49:26;;;;;;;3.20;1.75;;;;;;;22.31;49.08;99877.38;4478796;31;33844;-71
2023/06/05 04:51:56;;;;;;;4.72;2.55;;;;;;;22.35;48.72;99871.53;4478700;31;33844;-73
2023/06/05 04:54:25;;;;;;;2.58;1.70;;;;;;;22.35;48.68;99868.81;4481123;31;33903;-72
2023/06/05 04:56:53;;;;;;;5.50;1.90;;;;;;;22.34;49.10;99876.12;4480559;31;34413;-72
2023/06/05 04:59:21;;;;;;;5.07;2.30;;;;;;;22.35;49.35;99875.09;4479818;31;33838;-72
2023/06/05 05:01:49;;;;;;;3.37;1.90;;;;;;;22.36;49.61;99878.66;4474507;31;33777;-72
2023/06/05 05:04:37;;;;;;;3.55;2.05;;;;;;;22.26;49.62;99870.78;4479210;31;32467;-71
2023/06/05 05:07:06;;;;;;;4.78;2.17;;;;;;;22.31;49.68;99873.75;4478237;31;34271;-72
2023/06/05 05:09:33;;;;;;;3.55;2.10;;;;;;;22.40;49.03;99877.25;4481112;31;34040;-72
2023/06/05 05:12:01;;;;;;;7.00;2.35;;;;;;;22.48;48.79;99869.00;4478650;31;35618;-74
2023/06/05 05:14:29;;;;;;;3.55;2.37;;;;;;;22.44;48.94;99873.97;4483734;32;33711;-74
2023/06/05 05:16:57;;;;;;;7.15;2.72;;;;;;;22.45;48.95;99881.13;4483399;31;33789;-72
2023/06/05 05:19:25;;;;;;;9.93;3.05;;;;;;;22.49;48.82;99879.69;4484277;32;33490;-73
2023/06/05 05:21:53;;;;;;;5.62;3.03;;;;;;;22.45;48.63;99863.91;4481530;31;34950;-73
2023/06/05 05:24:22;;;;;;;5.07;3.03;;;;;;;22.38;48.76;99866.53;4477171;31;33674;-73
2023/06/05 05:26:51;;;;;;;7.10;2.97;;;;;;;22.48;48.26;99871.72;4475690;31;33349;-74
2023/06/05 05:29:18;;;;;;;4.37;2.20;;;;;;;22.25;48.48;99863.63;4482879;31;33523;-73
2023/06/05 05:31:46;;;;;;;4.25;2.22;;;;;;;22.48;47.43;99869.84;4480130;31;33986;-74
2023/06/05 05:34:14;;;;;;;4.20;2.37;;;;;;;22.51;45.97;99874.06;4484341;32;33678;-73
2023/06/05 05:36:43;;;;;;;3.60;2.08;;;;;;;22.48;45.91;99874.44;4481902;31;34474;-73
2023/06/05 05:39:11;;;;;;;9.52;2.55;;;;;;;22.17;45.14;99880.06;4480417;31;34796;-75
2023/06/05 05:41:38;;;;;;;4.10;2.45;;;;;;;22.33;45.51;99875.28;4482731;31;35415;-71
2023/06/05 05:44:06;;;;;;;5.45;2.22;;;;;;;22.06;45.22;99878.63;4483462;32;33554;-72
2023/06/05 05:46:34;;;;;;;4.85;2.35;;;;;;;22.15;45.38;99872.06;4481523;31;34331;-71
2023/06/05 05:49:01;;;;;;;4.68;2.28;;;;;;;22.08;45.57;99882.84;4482268;31;33662;-70
2023/06/05 05:51:30;;;;;;;6.80;2.87;;;;;;;22.17;45.65;99872.72;4480063;31;33992;-79
2023/06/05 05:53:57;;;;;;;4.53;2.28;;;;;;;22.14;45.94;99870.34;4480364;31;33315;-70
2023/06/05 05:56:25;;;;;;;4.40;2.35;;;;;;;21.99;46.25;99869.47;4479324;31;33135;-73
2023/06/05 05:58:53;;;;;;;4.72;2.10;;;;;;;21.77;46.59;99863.06;4482786;31;33472;-73
2023/06/05 06:01:21;;;;;;;5.07;2.03;;;;;;;21.90;46.66;99863.28;4479836;31;34044;-74
2023/06/05 06:03:49;;;;;;;4.37;2.33;;;;;;;22.02;46.29;99859.06;4482044;31;32050;-74
2023/06/05 06:06:17;;;;;;;4.90;2.55;;;;;;;22.05;45.62;99864.16;4483838;31;33796;-73
2023/06/05 06:08:44;;;;;;;10.45;2.50;;;;;;;22.01;46.27;99868.25;4478318;31;32621;-73
2023/06/05 06:11:12;;;;;;;7.18;2.60;;;;;;;22.13;45.58;99865.09;4477221;31;33924;-74
2023/06/05 06:13:41;;;;;;;7.75;2.30;;;;;;;21.70;45.96;99860.22;4480638;32;33764;-76
2023/06/05 06:16:09;;;;;;;4.82;2.45;;;;;;;21.68;45.88;99867.72;4479745;31;32225;-74
2023/06/05 06:18:37;;;;;;;4.57;2.47;;;;;;;21.67;45.77;99865.16;4481868;32;32847;-73
2023/06/05 06:21:05;;;;;;;4.32;1.98;;;;;;;21.70;45.68;99862.09;4481049;31;34070;-73
2023/06/05 06:23:32;;;;;;;4.93;2.45;;;;;;;21.19;46.06;99868.09;4479748;31;32681;-72
2023/06/05 06:26:01;;;;;;;8.52;3.97;;;;;;;20.92;47.07;99864.81;4483608;31;33554;-72
2023/06/05 06:28:28;;;;;;;5.57;2.30;;;;;;;21.31;45.88;99860.31;4481203;31;33714;-72
2023/06/05 06:30:56;;;;;;;6.72;3.00;;;;;;;20.95;46.34;99863.63;4481026;31;32990;-72
2023/06/05 06:33:24;;;;;;;6.43;3.35;;;;;;;21.21;46.21;99860.56;4478267;31;33633;-72
2023/06/05 06:35:51;;;;;;;5.07;2.08;;;;;;;20.66;47.84;99861.56;4480180;32;34337;-72
2023/06/05 06:38:19;;;;;;;4.37;2.58;;;;;;;21.05;47.26;99866.13;4480640;31;33927;-72
2023/06/05 06:40:46;;;;;;;6.07;2.75;;;;;;;20.77;48.50;99863.03;4479314;31;34791;-72
2023/06/05 06:43:14;;;;;;;4.60;2.58;;;;;;;20.60;49.37;99867.72;4481657;31;33736;-72
2023/06/05 06:45:44;;;;;;;7.80;2.15;;;;;;;21.29;47.22;99860.53;4474934;31;33036;-72
2023/06/05 06:48:12;;;;;;;6.90;2.85;;;;;;;21.08;47.70;99869.31;4478481;31;33775;-72
2023/06/05 06:50:39;;;;;;;6.85;2.75;;;;;;;21.29;47.32;99873.28;4475280;31;33983;-72
2023/06/05 06:53:07;;;;;;;4.90;3.22;;;;;;;20.96;48.28;99869.91;4480665;31;34682;-72
2023/06/05 06:55:35;;;;;;;2.80;1.87;;;;;;;20.81;48.83;99872.56;4481749;31;33376;-72
2023/06/05 06:58:03;;;;;;;11.60;3.12;;;;;;;21.34;47.83;99868.97;4481987;31;33891;-74
2023/06/05 07:00:31;;;;;;;7.43;2.65;;;;;;;21.14;48.54;99859.59;4476544;31;33087;-74
2023/06/05 07:02:59;;;;;;;5.68;2.50;;;;;;;21.35;48.06;99864.44;4472338;31;32828;-73
2023/06/05 07:05:27;;;;;;;7.22;2.65;;;;;;;21.52;47.16;99863.25;4478120;31;34508;-74
2023/06/05 07:07:55;;;;;;;6.43;2.72;;;;;;;21.44;47.97;99866.03;4477334;31;33786;-72
2023/06/05 07:10:23;;;;;;;4.85;2.72;;;;;;;21.58;47.79;99870.72;4482428;31;34069;-70
2023/06/05 07:12:50;;;;;;;9.50;3.12;;;;;;;21.27;48.80;99865.28;4479293;31;34740;-71
2023/06/05 07:15:18;;;;;;;8.00;2.65;;;;;;;21.54;47.82;99868.50;4480886;31;33710;-70
2023/06/05 07:17:46;;;;;;;5.78;2.53;;;;;;;21.57;48.42;99868.16;4482423;31;34632;-72
2023/06/05 07:20:13;;;;;;;4.90;2.67;;;;;;;21.80;47.39;99870.87;4471517;31;34075;-71
2023/06/05 07:22:45;;;;;;;4.28;2.40;;;;;;;21.42;48.10;99870.84;4480256;31;33938;-71
2023/06/05 07:25:15;;;;;;;5.32;2.17;;;;;;;21.68;48.11;99869.59;4474702;32;34160;-73
2023/06/05 07:27:44;;;;;;;4.70;2.25;;;;;;;21.65;48.53;99872.69;4478372;31;32832;-72
2023/06/05 07:30:12;;;;;;;10.13;2.60;;;;;;;21.83;47.78;99881.41;4478409;31;33939;-73
2023/06/05 07:32:42;;;;;;;6.78;3.20;;;;;;;21.91;47.78;99878.59;4474725;31;34736;-71
2023/06/05 07:35:10;;;;;;;3.80;1.90;;;;;;;22.05;47.58;99887.81;4473296;31;31982;-72
2023/06/05 07:37:38;;;;;;;3.83;2.17;;;;;;;22.10;46.66;99888.13;4481377;31;33853;-72
2023/06/05 07:40:08;;;;;;;5.25;2.47;;;;;;;21.87;47.56;99886.28;4480594;31;34115;-71
2023/06/05 07:42:35;;;;;;;7.70;3.50;;;;;;;22.26;46.84;99887.13;4482037;31;33853;-71
2023/06/05 07:45:03;;;;;;;12.75;2.67;;;;;;;22.23;47.30;99884.78;4480833;31;33459;-70
2023/06/05 07:47:31;;;;;;;6.87;3.03;;;;;;;22.21;46.96;99890.41;4479733;31;32840;-71
2023/06/05 07:50:01;;;;;;;7.28;2.58;;;;;;;22.39;46.81;99881.88;4472570;31;217990;-71
2023/06/05 07:52:28;;;;;;;4.40;2.67;;;;;;;22.44;46.01;99886.75;4474830;31;33796;-70
2023/06/05 07:54:56;;;;;;;4.70;2.42;;;;;;;22.55;46.33;99886.28;4482309;31;34292;-71
2023/06/05 07:57:24;;;;;;;7.10;3.03;;;;;;;22.68;46.26;99883.72;4482671;31;33880;-71
2023/06/05 07:59:52;;;;;;;4.85;2.47;;;;;;;22.84;45.46;99890.03;4481573;32;32554;-70
2023/06/05 08:02:20;;;;;;;7.68;2.92;;;;;;;22.81;46.19;99887.66;4481830;32;35072;-72
2023/06/05 08:04:48;;;;;;;8.57;3.00;;;;;;;22.98;46.06;99887.28;4475794;31;32735;-70
2023/06/05 08:07:15;;;;;;;6.95;3.03;;;;;;;22.95;45.41;99878.63;4481321;31;34964;-73
2023/06/05 08:09:43;;;;;;;5.87;2.72;;;;;;;23.02;45.63;99880.41;4480811;32;33800;-71
2023/06/05 08:12:11;;;;;;;14.02;3.45;;;;;;;22.83;45.68;99886.44;4480303;32;33816;-71
2023/06/05 08:14:38;;;;;;;6.78;3.58;;;;;;;22.85;45.78;99886.25;4472972;31;33448;-71
2023/06/05 08:17:06;;;;;;;8.73;3.35;;;;;;;23.07;45.51;99879.81;4478463;31;33862;-69
2023/06/05 08:19:34;;;;;;;5.55;2.40;;;;;;;23.03;45.22;99884.00;4481958;32;32467;-73
2023/06/05 08:22:04;;;;;;;4.65;2.62;;;;;;;22.83;45.48;99888.34;4479998;32;33741;-70
2023/06/05 08:24:31;;;;;;;8.48;3.20;;;;;;;23.09;45.49;99894.16;4479899;31;33229;-70
2023/06/05 08:27:00;;;;;;;4.93;2.37;;;;;;;23.21;45.69;99891.72;4482894;32;33971;-71
2023/06/05 08:29:27;;;;;;;6.28;2.90;;;;;;;22.91;46.06;99889.06;4482841;32;34183;-70
2023/06/05 08:31:55;;;;;;;5.03;2.50;;;;;;;23.05;45.58;99887.37;4482592;32;34742;-72
2023/06/05 08:34:25;;;;;;;13.75;3.17;;;;;;;23.14;45.28;99888.09;4478428;31;34440;-72
2023/06/05 08:36:53;;;;;;;10.43;3.75;;;;;;;22.86;46.34;99891.53;4474701;32;32920;-72
2023/06/05 08:39:21;;;;;;;6.95;3.50;;;;;;;23.01;45.87;99892.34;4480388;32;35014;-70
2023/06/05 08:41:51;;;;;;;5.30;2.78;;;;;;;23.11;45.46;99893.94;4474083;32;33736;-71
2023/06/05 08:44:18;;;;;;;5.15;3.03;;;;;;;23.11;45.35;99888.47;4478123;31;33050;-70
2023/06/05 08:46:46;;;;;;;6.25;2.60;;;;;;;23.05;45.37;99894.69;4478544;32;33454;-69
2023/06/05 08:49:17;;;;;;;7.30;3.35;;;;;;;23.28;44.50;99894.56;4480910;32;33986;-69
2023/06/05 08:51:45;;;;;;;7.70;2.30;;;;;;;22.19;46.29;99897.94;4481721;32;32867;-69
2023/06/05 08:54:13;;;;;;;6.60;2.92;;;;;;;23.10;45.06;99897.72;4482884;31;34547;-70
2023/06/05 08:56:42;;;;;;;8.13;2.70;;;;;;;23.14;45.16;99894.41;4483307;31;33560;-69
2023/06/05 08:59:14;;;;;;;5.20;2.65;;;;;;;23.20;44.28;99899.09;4483895;32;33922;-70
2023/06/05 09:01:44;;;;;;;5.62;2.83;;;;;;;23.28;45.01;99880.91;4476404;31;32731;-72
2023/06/05 09:04:12;;;;;;;5.95;3.05;;;;;;;22.89;46.22;99882.09;4472328;31;33562;-70
2023/06/05 09:06:41;;;;;;;5.35;2.42;;;;;;;22.65;46.17;99888.72;4483888;31;33809;-69
2023/06/05 09:09:10;;;;;;;7.72;3.50;;;;;;;23.20;46.22;99884.59;4481959;31;33708;-70
2023/06/05 09:11:38;;;;;;;6.20;2.72;;;;;;;23.05;46.55;99883.78;4483305;32;34566;-74
2023/06/05 09:14:05;;;;;;;9.23;3.10;;;;;;;23.20;45.32;99885.44;4478837;31;31792;-71
2023/06/05 09:16:43;;;;;;;7.93;2.60;;;;;;;23.15;44.84;99887.91;4479909;31;33701;-69
2023/06/05 09:19:11;;;;;;;7.32;2.67;;;;;;;23.16;45.52;99884.13;4480478;32;32743;-70
2023/06/05 09:21:39;;;;;;;6.18;2.70;;;;;;;23.30;45.44;99876.09;4483287;32;34906;-74
2023/06/05 09:24:15;;;;;;;9.07;2.87;;;;;;;23.41;44.77;99870.97;4482663;32;33792;-70
2023/06/05 09:27:08;;;;;;;7.53;2.95;;;;;;;23.62;44.64;99881.03;4483832;31;32388;-70
2023/06/05 09:29:38;;;;;;;4.55;2.67;;;;;;;23.83;44.70;99871.16;4471250;31;33639;-71
2023/06/05 09:32:07;;;;;;;19.87;3.22;;;;;;;23.85;44.22;99877.25;4483405;32;33994;-71
2023/06/05 09:34:36;;;;;;;10.57;2.80;;;;;;;23.91;43.52;99881.94;4481420;31;32333;-69
2023/06/05 09:37:09;;;;;;;5.00;1.75;;;;;;;24.16;43.00;99879.59;4478439;32;33845;-72
2023/06/05 09:39:38;;;;;;;6.72;2.03;;;;;;;24.09;43.56;99878.72;4479950;31;33969;-70
2023/06/05 09:42:06;;;;;;;7.18;2.55;;;;;;;24.27;40.31;99876.34;4473964;31;33884;-71
2023/06/05 09:44:35;;;;;;;8.82;2.90;;;;;;;24.20;39.82;99882.78;4476405;31;33328;-70
2023/06/05 09:47:08;;;;;;;5.53;2.50;;;;;;;24.29;40.38;99876.97;4478321;32;34898;-70
2023/06/05 09:49:39;;;;;;;4.12;1.90;;;;;;;24.47;38.42;99870.16;4479888;32;34843;-71
2023/06/05 09:52:10;;;;;;;4.62;1.90;;;;;;;24.37;36.95;99870.50;4477299;31;33858;-71
2023/06/05 09:54:45;;;;;;;6.07;3.12;;;;;;;23.73;38.54;99865.19;4476717;31;33390;-70
2023/06/05 09:57:14;;;;;;;6.45;2.50;;;;;;;24.48;36.42;99861.75;4477615;31;32733;-72
2023/06/05 09:59:50;;;;;;;4.68;2.42;;;;;;;24.71;36.34;99864.16;4482069;32;32811;-71
2023/06/05 10:02:19;;;;;;;6.12;2.30;;;;;;;24.93;37.36;99861.31;4482799;31;33766;-72
2023/06/05 10:04:48;;;;;;;5.45;2.42;;;;;;;24.95;34.06;99849.13;4482332;31;34115;-71
2023/06/05 10:07:15;;;;;;;3.97;1.65;;;;;;;25.18;35.09;99858.91;4483187;31;33627;-71
2023/06/05 10:09:44;;;;;;;5.15;2.78;;;;;;;25.52;35.02;99850.53;4483936;32;34693;-71
2023/06/05 10:12:12;;;;;;;7.10;2.50;;;;;;;25.65;33.93;99846.97;4483203;31;34738;-70
2023/06/05 10:14:42;;;;;;;4.85;2.05;;;;;;;25.59;35.21;99847.78;4481414;32;33329;-70
2023/06/05 10:17:13;;;;;;;5.20;2.53;;;;;;;25.87;34.62;99844.84;4481077;31;33437;-71
2023/06/05 10:19:44;;;;;;;4.62;2.50;;;;;;;25.94;33.71;99839.38;4477509;32;32811;-71
2023/06/05 10:22:12;;;;;;;6.78;2.65;;;;;;;26.06;33.37;99840.41;4481987;31;33607;-69
2023/06/05 10:24:51;;;;;;;16.23;2.60;;;;;;;25.87;33.81;99833.87;4484177;32;33360;-73
2023/06/05 10:27:55;;;;;;;4.70;2.37;;;;;;;26.01;32.92;99827.34;4480341;31;32322;-71
2023/06/05 10:30:44;;;;;;;4.85;3.00;;;;;;;26.27;34.23;99835.75;4410497;32;34928;-70
2023/06/05 10:33:21;;;;;;;5.62;2.75;;;;;;;26.45;31.97;99827.66;4482083;31;34939;-71
2023/06/05 10:35:55;;;;;;;3.37;2.05;;;;;;;26.05;31.77;99821.44;4482694;32;32474;-71
2023/06/05 10:38:26;;;;;;;4.93;2.33;;;;;;;26.35;33.30;99817.13;4493922;31;34915;-69
2023/06/05 10:40:55;;;;;;;6.80;2.22;;;;;;;25.58;32.85;99826.06;4483076;32;34108;-70
2023/06/05 10:43:45;;;;;;;5.25;1.73;;;;;;;26.10;30.90;99825.22;4478455;31;33648;-75
2023/06/05 10:46:35;;;;;;;5.72;2.05;;;;;;;26.20;29.82;99822.03;4482708;32;31970;-72
2023/06/05 10:49:12;;;;;;;3.15;1.80;;;;;;;26.54;30.72;99829.12;4481635;31;35039;-75
2023/06/05 10:51:50;;;;;;;4.40;2.00;;;;;;;26.74;29.46;99818.06;4481381;31;32907;-71
2023/06/05 10:54:23;;;;;;;5.68;2.15;;;;;;;27.12;29.59;99820.81;4474494;31;33934;-74
2023/06/05 10:56:56;;;;;;;8.15;2.37;;;;;;;27.31;29.16;99819.03;4480951;32;33190;-72
2023/06/05 10:59:26;;;;;;;5.10;2.55;;;;;;;26.59;28.94;99825.75;4482070;31;33715;-72
2023/06/05 11:02:09;;;;;;;5.70;2.22;;;;;;;27.05;29.05;99816.44;4470712;31;32695;-74
2023/06/05 11:05:04;;;;;;;7.00;2.03;;;;;;;27.08;29.43;99810.50;4483006;32;33931;-71
2023/06/05 11:07:31;;;;;;;5.87;2.30;;;;;;;27.21;28.96;99807.69;4481766;32;33235;-71
2023/06/05 11:10:05;;;;;;;6.30;3.12;;;;;;;27.47;29.54;99805.81;4482120;31;34875;-71
2023/06/05 11:12:35;;;;;;;6.78;2.62;;;;;;;27.59;29.03;99802.13;4479103;31;34887;-72
2023/06/05 11:15:05;;;;;;;11.50;2.40;;;;;;;27.22;28.10;99803.87;4483172;31;33679;-71
2023/06/05 11:17:36;;;;;;;4.07;2.97;;;;;;;27.19;28.75;99798.81;4480151;32;33094;-72
2023/06/05 11:20:06;;;;;;;4.78;2.22;;;;;;;27.35;29.04;99802.94;4475262;31;33978;-71
2023/06/05 11:22:55;;;;;;;11.45;2.55;;;;;;;27.06;30.49;99812.63;4480817;31;33557;-72
2023/06/05 11:25:30;;;;;;;5.03;2.45;;;;;;;27.29;30.08;99804.69;4483502;32;32873;-71
2023/06/05 11:28:01;;;;;;;4.12;2.08;;;;;;;26.62;30.29;99801.44;4482663;32;33604;-72
2023/06/05 11:30:34;;;;;;;5.03;2.03;;;;;;;26.59;30.76;99803.78;4480911;31;34912;-70
2023/06/05 11:33:16;;;;;;;4.62;2.10;;;;;;;26.45;30.54;99798.34;4476073;32;33673;-71
2023/06/05 11:35:47;;;;;;;2.55;1.65;;;;;;;26.54;32.01;99790.72;4480191;32;34676;-72
2023/06/05 11:38:17;;;;;;;3.62;2.25;;;;;;;26.46;32.70;99797.25;4481762;32;33899;-71
2023/06/05 11:40:50;;;;;;;4.50;1.92;;;;;;;26.59;32.51;99790.91;4475488;31;33886;-71
2023/06/05 11:43:17;;;;;;;4.37;2.00;;;;;;;26.42;32.43;99789.66;4477110;31;33887;-71
2023/06/05 11:45:50;;;;;;;6.62;2.55;;;;;;;26.83;33.05;99791.22;4481330;32;33884;-70